createdAt,value
2023-05-15T00:01:46.836Z,100287.34
2023-05-15T00:04:13.996Z,100282.13
2023-05-15T00:06:41.082Z,100284.13
2023-05-15T00:09:08.843Z,100277.47
2023-05-15T00:11:35.818Z,100282.81
2023-05-15T00:14:02.826Z,100283.84
2023-05-15T00:16:29.855Z,100286.53
2023-05-15T00:18:56.885Z,100286.84
2023-05-15T00:21:24.144Z,100287.50
2023-05-15T00:23:54.079Z,100285.16
2023-05-15T00:26:24.213Z,100289.88
2023-05-15T00:28:52.016Z,100282.19
2023-05-15T00:31:19.142Z,100290.22
2023-05-15T00:33:46.107Z,100292.22
2023-05-15T00:36:13.199Z,100283.50
2023-05-15T00:38:40.301Z,100294.41
2023-05-15T00:41:08.117Z,100290.72
2023-05-15T00:43:36.797Z,100291.88
2023-05-15T00:46:04.651Z,100300.13
2023-05-15T00:48:33.292Z,100297.78
2023-05-15T00:51:00.497Z,100294.59
2023-05-15T00:53:28.260Z,100302.44
2023-05-15T00:55:57.786Z,100297.44
2023-05-15T00:58:27.107Z,100296.78
2023-05-15T01:00:54.251Z,100297.13
2023-05-15T01:03:21.365Z,100299.81
2023-05-15T01:05:48.414Z,100304.31
2023-05-15T01:08:37.889Z,100298.94
2023-05-15T01:11:08.989Z,100300.31
2023-05-15T01:13:35.983Z,100304.97
2023-05-15T01:16:05.272Z,100306.19
2023-05-15T01:18:32.772Z,100299.97
2023-05-15T01:21:05.830Z,100312.69
2023-05-15T01:23:38.600Z,100300.47
2023-05-15T01:26:14.516Z,100306.31
2023-05-15T01:28:59.490Z,100309.19
2023-05-15T01:31:29.940Z,100301.16
2023-05-15T01:34:02.655Z,100300.31
2023-05-15T01:36:51.715Z,100300.31
2023-05-15T01:39:23.284Z,100300.81
2023-05-15T01:42:12.874Z,100293.44
2023-05-15T01:44:50.934Z,100303.66
2023-05-15T01:47:44.304Z,100298.94
2023-05-15T01:50:14.920Z,100304.66
2023-05-15T01:52:47.505Z,100303.97
2023-05-15T01:55:16.294Z,100310.63
2023-05-15T01:57:46.898Z,100309.31
2023-05-15T02:00:14.510Z,100309.97
2023-05-15T02:02:43.390Z,100316.50
2023-05-15T02:05:12.395Z,100309.63
2023-05-15T02:07:42.500Z,100317.47
2023-05-15T02:10:11.920Z,100321.13
2023-05-15T02:12:41.394Z,100319.25
2023-05-15T02:15:12.254Z,100327.44
2023-05-15T02:17:41.287Z,100322.88
2023-05-15T02:20:09.202Z,100322.69
2023-05-15T02:22:38.220Z,100318.34
2023-05-15T02:25:06.219Z,100307.91
2023-05-15T02:28:00.254Z,100321.41
2023-05-15T02:30:33.334Z,100315.66
2023-05-15T02:33:12.838Z,100319.97
2023-05-15T02:35:56.167Z,100321.25
2023-05-15T02:38:33.586Z,100315.19
2023-05-15T02:41:01.239Z,100323.31
2023-05-15T02:43:29.776Z,100319.34
2023-05-15T02:45:57.792Z,100329.84
2023-05-15T02:48:25.924Z,100319.25
2023-05-15T02:50:53.647Z,100326.03
2023-05-15T02:53:20.662Z,100327.78
2023-05-15T02:55:48.134Z,100329.03
2023-05-15T02:58:15.277Z,100326.59
2023-05-15T03:00:42.506Z,100321.78
2023-05-15T03:03:09.503Z,100326.13
2023-05-15T03:05:36.627Z,100325.09
2023-05-15T03:08:03.814Z,100328.63
2023-05-15T03:10:30.760Z,100330.66
2023-05-15T03:13:00.652Z,100326.53
2023-05-15T03:15:27.934Z,100327.31
2023-05-15T03:17:55.245Z,100334.38
2023-05-15T03:20:22.267Z,100339.97
2023-05-15T03:22:49.337Z,100337.00
2023-05-15T03:25:16.571Z,100346.88
2023-05-15T03:27:43.586Z,100350.53
2023-05-15T03:30:11.145Z,100350.31
2023-05-15T03:32:38.210Z,100358.31
2023-05-15T03:35:05.742Z,100353.66
2023-05-15T03:37:33.093Z,100348.31
2023-05-15T03:40:00.168Z,100357.97
2023-05-15T03:42:28.058Z,100346.66
2023-05-15T03:44:56.478Z,100352.19
2023-05-15T03:47:23.644Z,100359.06
2023-05-15T03:49:53.009Z,100354.72
2023-05-15T03:52:19.992Z,100351.09
2023-05-15T03:54:47.238Z,100361.41
2023-05-15T03:57:14.347Z,100365.78
2023-05-15T03:59:41.645Z,100357.19
2023-05-15T04:02:08.665Z,100349.53
2023-05-15T04:04:35.865Z,100347.50
2023-05-15T04:07:02.959Z,100352.91
2023-05-15T04:09:29.954Z,100351.38
2023-05-15T04:11:57.044Z,100355.25
2023-05-15T04:14:24.053Z,100348.69
2023-05-15T04:16:51.125Z,100354.00
2023-05-15T04:19:18.299Z,100356.41
2023-05-15T04:21:45.309Z,100356.53
2023-05-15T04:24:12.556Z,100361.78
2023-05-15T04:26:39.589Z,100354.13
2023-05-15T04:29:06.744Z,100353.81
2023-05-15T04:31:35.343Z,100361.69
2023-05-15T04:34:04.055Z,100351.28
2023-05-15T04:36:31.902Z,100353.22
2023-05-15T04:38:59.251Z,100355.72
2023-05-15T04:41:27.652Z,100359.09
2023-05-15T04:43:54.757Z,100344.13
2023-05-15T04:46:21.937Z,100350.41
2023-05-15T04:48:48.909Z,100347.53
2023-05-15T04:51:16.005Z,100355.19
2023-05-15T04:53:42.963Z,100362.16
2023-05-15T04:56:09.952Z,100364.34
2023-05-15T04:58:37.037Z,100361.75
2023-05-15T05:01:04.473Z,100362.84
2023-05-15T05:03:31.977Z,100364.09
2023-05-15T05:05:58.980Z,100359.41
2023-05-15T05:08:26.133Z,100362.41
2023-05-15T05:10:57.625Z,100361.91
2023-05-15T05:13:24.645Z,100357.97
2023-05-15T05:15:51.707Z,100356.66
2023-05-15T05:18:18.818Z,100355.59
2023-05-15T05:20:45.779Z,100358.59
2023-05-15T05:23:14.988Z,100361.25
2023-05-15T05:25:42.271Z,100358.13
2023-05-15T05:28:09.320Z,100348.22
2023-05-15T05:30:36.288Z,100349.44
2023-05-15T05:33:03.512Z,100345.97
2023-05-15T05:35:30.591Z,100348.03
2023-05-15T05:37:57.574Z,100349.44
2023-05-15T05:40:24.733Z,100339.72
2023-05-15T05:42:51.890Z,100349.44
2023-05-15T05:45:18.887Z,100351.66
2023-05-15T05:47:45.964Z,100348.34
2023-05-15T05:50:12.973Z,100346.75
2023-05-15T05:52:39.957Z,100347.41
2023-05-15T05:55:07.155Z,100342.47
2023-05-15T05:57:34.088Z,100340.53
2023-05-15T06:00:01.247Z,100333.09
2023-05-15T06:02:29.961Z,100343.88
2023-05-15T06:04:57.408Z,100332.72
2023-05-15T06:07:24.473Z,100331.28
2023-05-15T06:09:51.516Z,100334.69
2023-05-15T06:12:19.579Z,100336.69
2023-05-15T06:14:47.454Z,100338.31
2023-05-15T06:17:14.630Z,100333.28
2023-05-15T06:19:41.624Z,100336.63
2023-05-15T06:22:08.591Z,100335.69
2023-05-15T06:24:35.586Z,100334.47
2023-05-15T06:27:02.641Z,100331.78
2023-05-15T06:29:29.653Z,100326.56
2023-05-15T06:31:56.572Z,100320.09
2023-05-15T06:34:23.645Z,100328.91
2023-05-15T06:36:51.256Z,100331.22
2023-05-15T06:39:22.089Z,100329.53
2023-05-15T06:41:49.235Z,100322.47
2023-05-15T06:44:16.268Z,100325.84
2023-05-15T06:46:43.424Z,100318.53
2023-05-15T06:49:10.536Z,100324.03
2023-05-15T06:51:37.576Z,100316.66
2023-05-15T06:54:04.732Z,100316.25
2023-05-15T06:56:31.695Z,100313.91
2023-05-15T06:58:58.805Z,100318.38
2023-05-15T07:01:26.458Z,100319.91
2023-05-15T07:03:53.547Z,100323.56
2023-05-15T07:06:20.636Z,100323.81
2023-05-15T07:08:47.643Z,100330.91
2023-05-15T07:11:14.784Z,100328.47
2023-05-15T07:13:41.892Z,100316.44
2023-05-15T07:16:08.842Z,100320.34
2023-05-15T07:18:36.238Z,100327.78
2023-05-15T07:21:03.398Z,100320.44
2023-05-15T07:23:30.536Z,100321.16
2023-05-15T07:25:57.574Z,100318.59
2023-05-15T07:28:24.616Z,100319.94
2023-05-15T07:30:52.841Z,100319.78
2023-05-15T07:33:20.051Z,100312.50
2023-05-15T07:35:47.100Z,100324.00
2023-05-15T07:38:14.149Z,100315.72
2023-05-15T07:40:41.384Z,100304.16
2023-05-15T07:43:08.968Z,100306.63
2023-05-15T07:45:36.175Z,100302.03
2023-05-15T07:48:19.644Z,100303.13
2023-05-15T07:50:47.645Z,100310.31
2023-05-15T07:53:16.991Z,100297.72
2023-05-15T07:55:44.680Z,100303.47
2023-05-15T07:58:12.040Z,100295.50
2023-05-15T08:00:39.212Z,100292.34
2023-05-15T08:03:06.566Z,100279.84
2023-05-15T08:05:33.743Z,100285.88
2023-05-15T08:08:01.040Z,100279.00
2023-05-15T08:10:28.161Z,100282.72
2023-05-15T08:12:56.293Z,100293.31
2023-05-15T08:15:24.162Z,100280.25
2023-05-15T08:17:51.424Z,100275.78
2023-05-15T08:20:18.501Z,100277.16
2023-05-15T08:22:45.761Z,100280.44
2023-05-15T08:25:12.736Z,100285.84
2023-05-15T08:27:39.764Z,100283.19
2023-05-15T08:30:07.577Z,100276.69
2023-05-15T08:32:37.435Z,100277.44
2023-05-15T08:35:05.327Z,100275.84
2023-05-15T08:37:33.834Z,100270.19
2023-05-15T08:40:01.178Z,100269.38
2023-05-15T08:42:42.268Z,100255.72
2023-05-15T08:45:10.372Z,100262.94
2023-05-15T08:47:40.467Z,100265.06
2023-05-15T08:50:15.417Z,100270.50
2023-05-15T08:52:47.146Z,100263.31
2023-05-15T08:55:15.485Z,100264.06
2023-05-15T08:57:44.193Z,100254.25
2023-05-15T09:00:15.017Z,100247.50
2023-05-15T09:02:42.916Z,100252.66
2023-05-15T09:05:10.461Z,100242.50
2023-05-15T09:07:41.114Z,100242.91
2023-05-15T09:10:09.972Z,100234.13
2023-05-15T09:12:41.915Z,100234.63
2023-05-15T09:15:22.231Z,100237.13
2023-05-15T09:17:54.164Z,100235.19
2023-05-15T09:20:38.043Z,100230.19
2023-05-15T09:23:21.818Z,100232.78
2023-05-15T09:25:53.682Z,100222.25
2023-05-15T09:28:32.314Z,100221.63
2023-05-15T09:31:00.655Z,100212.03
2023-05-15T09:33:32.819Z,100208.88
2023-05-15T09:36:00.482Z,100206.00
2023-05-15T09:38:27.590Z,100201.97
2023-05-15T09:41:06.303Z,100199.84
2023-05-15T09:43:40.916Z,100204.06
2023-05-15T09:46:09.678Z,100207.47
2023-05-15T09:48:37.128Z,100209.88
2023-05-15T09:51:07.914Z,100210.47
2023-05-15T09:53:35.837Z,100206.03
2023-05-15T09:56:03.399Z,100209.13
2023-05-15T09:58:30.423Z,100210.03
2023-05-15T10:01:00.988Z,100205.41
2023-05-15T10:03:28.044Z,100197.38
2023-05-15T10:06:02.226Z,100202.59
2023-05-15T10:08:29.444Z,100199.75
2023-05-15T10:11:00.016Z,100196.44
2023-05-15T10:13:28.224Z,100191.34
2023-05-15T10:15:56.496Z,100189.72
2023-05-15T10:18:26.685Z,100185.69
2023-05-15T10:20:54.743Z,100180.63
2023-05-15T10:23:22.930Z,100188.03
2023-05-15T10:26:03.306Z,100189.66
2023-05-15T10:28:32.174Z,100186.19
2023-05-15T10:31:01.860Z,100180.09
2023-05-15T10:33:30.210Z,100175.38
2023-05-15T10:35:59.007Z,100175.38
2023-05-15T10:38:27.576Z,100176.63
2023-05-15T10:41:09.129Z,100176.72
2023-05-15T10:43:44.278Z,100178.00
2023-05-15T10:46:11.704Z,100171.69
2023-05-15T10:48:39.590Z,100167.72
2023-05-15T10:51:15.103Z,100168.16
2023-05-15T10:53:43.803Z,100164.06
2023-05-15T10:56:17.340Z,100164.91
2023-05-15T10:58:49.096Z,100161.06
2023-05-15T11:01:42.545Z,100152.91
2023-05-15T11:04:14.066Z,100160.38
2023-05-15T11:06:44.046Z,100158.56
2023-05-15T11:09:27.751Z,100148.97
2023-05-15T11:11:57.679Z,100153.72
2023-05-15T11:14:30.015Z,100147.16
2023-05-15T11:16:59.067Z,100151.03
2023-05-15T11:19:26.162Z,100138.16
2023-05-15T11:22:08.461Z,100143.59
2023-05-15T11:24:52.151Z,100139.81
2023-05-15T11:27:20.799Z,100147.81
2023-05-15T11:30:18.443Z,100144.34
2023-05-15T11:32:48.695Z,100140.41
2023-05-15T11:35:28.249Z,100132.41
2023-05-15T11:37:58.120Z,100131.38
2023-05-15T11:40:29.065Z,100137.88
2023-05-15T11:43:07.176Z,100133.00
2023-05-15T11:45:37.274Z,100132.06
2023-05-15T11:48:06.957Z,100135.88
2023-05-15T11:50:35.565Z,100128.59
2023-05-15T11:53:04.711Z,100123.72
2023-05-15T11:55:33.457Z,100117.13
2023-05-15T11:58:01.270Z,100121.22
2023-05-15T12:00:30.536Z,100114.72
2023-05-15T12:02:57.887Z,100105.53
2023-05-15T12:05:25.030Z,100111.44
2023-05-15T12:07:52.521Z,100116.06
2023-05-15T12:10:19.660Z,100111.09
2023-05-15T12:12:48.970Z,100112.38
2023-05-15T12:15:17.509Z,100108.72
2023-05-15T12:17:46.314Z,100105.91
2023-05-15T12:20:18.680Z,100113.34
2023-05-15T12:22:46.172Z,100092.75
2023-05-15T12:25:15.873Z,100089.09
2023-05-15T12:27:43.202Z,100095.84
2023-05-15T12:30:11.511Z,100097.50
2023-05-15T12:32:42.371Z,100098.22
2023-05-15T12:35:10.809Z,100091.97
2023-05-15T12:37:38.048Z,100094.44
2023-05-15T12:40:15.901Z,100084.28
2023-05-15T12:42:44.858Z,100086.78
2023-05-15T12:45:16.213Z,100088.69
2023-05-15T12:47:45.308Z,100089.84
2023-05-15T12:50:20.610Z,100083.81
2023-05-15T12:52:54.751Z,100082.75
2023-05-15T12:55:32.198Z,100074.91
2023-05-15T12:58:04.689Z,100073.53
2023-05-15T13:00:34.653Z,100076.28
2023-05-15T13:03:02.482Z,100070.25
2023-05-15T13:05:32.736Z,100067.22
2023-05-15T13:08:00.377Z,100055.75
2023-05-15T13:10:27.711Z,100059.16
2023-05-15T13:12:56.727Z,100055.16
2023-05-15T13:15:37.305Z,100050.06
2023-05-15T13:18:06.834Z,100053.75
2023-05-15T13:20:39.579Z,100051.16
2023-05-15T13:23:08.092Z,100048.31
2023-05-15T13:25:36.056Z,100053.84
2023-05-15T13:28:05.441Z,100055.75
2023-05-15T13:30:35.740Z,100052.06
2023-05-15T13:33:03.063Z,100055.50
2023-05-15T13:35:30.261Z,100056.56
2023-05-15T13:37:57.658Z,100051.38
2023-05-15T13:40:25.233Z,100050.44
2023-05-15T13:42:52.469Z,100047.47
2023-05-15T13:45:19.997Z,100053.97
2023-05-15T13:47:47.098Z,100048.78
2023-05-15T13:50:15.982Z,100052.53
2023-05-15T13:52:44.671Z,100052.06
2023-05-15T13:55:12.205Z,100047.47
2023-05-15T13:57:40.598Z,100046.31
2023-05-15T14:00:12.585Z,100045.81
2023-05-15T14:02:41.204Z,100044.53
2023-05-15T14:05:09.373Z,100033.88
2023-05-15T14:07:36.548Z,100033.88
2023-05-15T14:10:04.603Z,100040.50
2023-05-15T14:12:32.692Z,100032.09
2023-05-15T14:15:00.939Z,100038.63
2023-05-15T14:17:28.858Z,100039.34
2023-05-15T14:19:56.249Z,100036.84
2023-05-15T14:22:25.339Z,100032.22
2023-05-15T14:24:53.169Z,100029.84
2023-05-15T14:27:20.480Z,100027.97
2023-05-15T14:29:49.328Z,100026.91
2023-05-15T14:32:17.104Z,100027.38
2023-05-15T14:34:44.778Z,100030.81
2023-05-15T14:37:11.960Z,100033.31
2023-05-15T14:39:39.245Z,100033.91
2023-05-15T14:42:08.026Z,100025.38
2023-05-15T14:44:35.221Z,100034.25
2023-05-15T14:47:10.580Z,100031.53
2023-05-15T14:49:37.899Z,100022.66
2023-05-15T14:52:08.263Z,100015.22
2023-05-15T14:54:36.095Z,100013.31
2023-05-15T14:57:03.890Z,100011.19
2023-05-15T14:59:31.366Z,100013.19
2023-05-15T15:01:58.457Z,100007.75
2023-05-15T15:04:26.872Z,100006.94
2023-05-15T15:06:57.240Z,100015.34
2023-05-15T15:09:25.453Z,100016.16
2023-05-15T15:11:54.142Z,100013.66
2023-05-15T15:14:21.341Z,100010.13
2023-05-15T15:16:48.626Z,100002.44
2023-05-15T15:19:18.142Z,100002.56
2023-05-15T15:21:46.860Z,100006.47
2023-05-15T15:24:13.899Z,100015.75
2023-05-15T15:26:41.431Z,100012.09
2023-05-15T15:29:08.476Z,100012.56
2023-05-15T15:31:35.832Z,100005.47
2023-05-15T15:34:05.384Z,100004.84
2023-05-15T15:36:32.938Z,99998.59
2023-05-15T15:38:59.939Z,100000.50
2023-05-15T15:41:30.552Z,99996.59
2023-05-15T15:43:57.597Z,99996.00
2023-05-15T15:46:24.769Z,99997.75
2023-05-15T15:48:52.149Z,99998.19
2023-05-15T15:51:19.131Z,99996.56
2023-05-15T15:53:46.321Z,99996.66
2023-05-15T15:56:13.227Z,100001.25
2023-05-15T15:58:40.337Z,99997.78
2023-05-15T16:01:07.538Z,99991.19
2023-05-15T16:03:34.766Z,99995.66
2023-05-15T16:06:01.833Z,99996.09
2023-05-15T16:08:29.181Z,99995.53
2023-05-15T16:10:56.255Z,100003.66
2023-05-15T16:13:23.392Z,100003.88
2023-05-15T16:15:50.990Z,100007.66
2023-05-15T16:18:18.305Z,100006.22
2023-05-15T16:20:45.363Z,100006.44
2023-05-15T16:23:15.599Z,100003.38
2023-05-15T16:25:44.549Z,99998.63
2023-05-15T16:28:12.149Z,99992.59
2023-05-15T16:33:09.210Z,100004.22
2023-05-15T16:35:39.426Z,99999.84
2023-05-15T16:38:21.889Z,99992.78
2023-05-15T16:41:10.970Z,100000.56
2023-05-15T16:43:50.982Z,100007.47
2023-05-15T16:46:48.291Z,100007.34
2023-05-15T16:49:37.556Z,100002.53
2023-05-15T16:52:24.872Z,99998.84
2023-05-15T16:55:07.073Z,100000.66
2023-05-15T16:57:37.141Z,100012.34
2023-05-15T17:02:51.649Z,100013.09
2023-05-15T17:05:28.891Z,100011.47
2023-05-15T17:08:04.828Z,100010.53
2023-05-15T17:10:37.320Z,100013.06
2023-05-15T17:13:17.186Z,99999.41
2023-05-15T17:15:52.043Z,100012.75
2023-05-15T17:18:26.811Z,100011.50
2023-05-15T17:21:12.054Z,100007.44
2023-05-15T17:23:54.287Z,100000.09
2023-05-15T17:26:39.152Z,100011.91
2023-05-15T17:29:20.651Z,100006.53
2023-05-15T17:31:57.734Z,100009.06
2023-05-15T17:34:31.510Z,100014.47
2023-05-15T17:36:59.597Z,100012.22
2023-05-15T17:39:27.493Z,100017.00
2023-05-15T17:41:54.535Z,100012.28
2023-05-15T17:44:23.360Z,100011.84
2023-05-15T17:46:51.279Z,100023.13
2023-05-15T17:49:18.461Z,100030.03
2023-05-15T17:51:45.438Z,100026.09
2023-05-15T17:54:12.365Z,100028.19
2023-05-15T17:56:40.514Z,100036.13
2023-05-15T17:59:07.662Z,100034.91
2023-05-15T18:01:34.759Z,100031.56
2023-05-15T18:04:01.878Z,100037.41
2023-05-15T18:06:29.461Z,100037.84
2023-05-15T18:08:56.585Z,100045.97
2023-05-15T18:11:23.641Z,100039.13
2023-05-15T18:13:50.776Z,100046.84
2023-05-15T18:16:18.393Z,100039.19
2023-05-15T18:18:45.445Z,100046.03
2023-05-15T18:21:12.542Z,100043.16
2023-05-15T18:23:39.530Z,100040.91
2023-05-15T18:26:06.678Z,100040.47
2023-05-15T18:28:33.774Z,100035.72
2023-05-15T18:31:00.771Z,100033.44
2023-05-15T18:33:28.304Z,100044.88
2023-05-15T18:35:55.381Z,100039.91
2023-05-15T18:38:22.567Z,100044.72
2023-05-15T18:40:49.537Z,100043.88
2023-05-15T18:43:16.603Z,100045.97
2023-05-15T18:45:43.865Z,100042.03
2023-05-15T18:48:10.929Z,100042.47
2023-05-15T18:50:39.379Z,100052.00
2023-05-15T18:53:07.228Z,100046.59
2023-05-15T18:55:34.267Z,100047.63
2023-05-15T18:58:01.360Z,100049.28
2023-05-15T19:00:43.574Z,100047.25
2023-05-15T19:03:11.183Z,100057.63
2023-05-15T19:05:38.431Z,100050.97
2023-05-15T19:08:05.539Z,100054.28
2023-05-15T19:10:35.317Z,100049.72
2023-05-15T19:13:03.700Z,100062.19
2023-05-15T19:15:30.771Z,100048.03
2023-05-15T19:17:57.919Z,100053.69
2023-05-15T19:20:25.408Z,100054.28
2023-05-15T19:22:54.847Z,100063.66
2023-05-15T19:25:22.064Z,100060.34
2023-05-15T19:27:49.083Z,100057.25
2023-05-15T19:30:16.310Z,100061.78
2023-05-15T19:32:43.434Z,100055.78
2023-05-15T19:35:10.809Z,100064.09
2023-05-15T19:37:37.934Z,100062.63
2023-05-15T19:40:06.114Z,100067.22
2023-05-15T19:42:33.188Z,100070.97
2023-05-15T19:45:00.230Z,100063.06
2023-05-15T19:47:27.579Z,100073.25
2023-05-15T19:49:54.810Z,100064.34
2023-05-15T19:52:21.901Z,100068.88
2023-05-15T19:54:48.868Z,100068.28
2023-05-15T19:57:16.209Z,100073.28
2023-05-15T19:59:43.262Z,100063.50
2023-05-15T20:02:11.361Z,100067.44
2023-05-15T20:04:38.675Z,100068.09
2023-05-15T20:07:05.855Z,100065.16
2023-05-15T20:09:33.179Z,100075.97
2023-05-15T20:12:00.931Z,100080.34
2023-05-15T20:14:28.058Z,100081.56
2023-05-15T20:16:55.123Z,100076.81
2023-05-15T20:19:23.155Z,100076.41
2023-05-15T20:21:50.640Z,100087.63
2023-05-15T20:24:18.339Z,100083.44
2023-05-15T20:26:45.568Z,100071.84
2023-05-15T20:29:12.690Z,100075.53
2023-05-15T20:31:40.597Z,100071.19
2023-05-15T20:34:08.662Z,100066.41
2023-05-15T20:36:39.027Z,100064.34
2023-05-15T20:39:07.396Z,100066.41
2023-05-15T20:41:34.841Z,100058.94
2023-05-15T20:44:02.274Z,100068.91
2023-05-15T20:46:30.744Z,100068.06
2023-05-15T20:48:58.010Z,100063.69
2023-05-15T20:51:25.258Z,100074.69
2023-05-15T20:53:52.427Z,100069.69
2023-05-15T20:56:19.420Z,100070.69
2023-05-15T20:58:46.575Z,100070.50
2023-05-15T21:01:13.893Z,100080.03
2023-05-15T21:03:41.252Z,100079.41
2023-05-15T21:06:08.933Z,100081.88
2023-05-15T21:08:36.556Z,100080.81
2023-05-15T21:11:03.685Z,100077.50
2023-05-15T21:13:30.667Z,100079.75
2023-05-15T21:15:57.655Z,100088.25
2023-05-15T21:18:24.732Z,100084.13
2023-05-15T21:20:51.871Z,100089.91
2023-05-15T21:23:21.101Z,100093.63
2023-05-15T21:25:48.330Z,100087.81
2023-05-15T21:28:16.041Z,100087.16
2023-05-15T21:30:43.469Z,100088.22
2023-05-15T21:33:10.740Z,100086.56
2023-05-15T21:35:38.360Z,100090.28
2023-05-15T21:38:05.649Z,100076.56
2023-05-15T21:40:32.809Z,100095.22
2023-05-15T21:42:59.825Z,100091.09
2023-05-15T21:45:26.896Z,100095.03
2023-05-15T21:47:53.986Z,100101.63
2023-05-15T21:50:20.997Z,100093.94
2023-05-15T21:52:50.948Z,100091.84
2023-05-15T21:55:18.862Z,100094.75
2023-05-15T21:57:46.132Z,100097.03
2023-05-15T22:00:14.197Z,100106.72
2023-05-15T22:02:41.334Z,100109.59
2023-05-15T22:05:08.877Z,100112.69
2023-05-15T22:07:36.077Z,100111.25
2023-05-15T22:10:03.225Z,100114.94
2023-05-15T22:12:32.338Z,100119.72
2023-05-15T22:15:00.109Z,100112.03
2023-05-15T22:17:29.268Z,100109.34
2023-05-15T22:20:07.360Z,100120.31
2023-05-15T22:22:35.994Z,100120.91
2023-05-15T22:25:03.501Z,100108.66
2023-05-15T22:27:30.584Z,100113.22
2023-05-15T22:29:57.838Z,100107.00
2023-05-15T22:32:25.136Z,100115.91
2023-05-15T22:34:52.476Z,100107.19
2023-05-15T22:37:19.856Z,100111.94
2023-05-15T22:39:46.826Z,100107.59
2023-05-15T22:42:13.814Z,100112.31
2023-05-15T22:44:40.873Z,100108.81
2023-05-15T22:47:07.929Z,100103.41
2023-05-15T22:49:34.963Z,100111.06
2023-05-15T22:52:02.274Z,100111.06
2023-05-15T22:54:29.562Z,100107.72
2023-05-15T22:56:57.060Z,100110.59
2023-05-15T22:59:24.283Z,100108.94
2023-05-15T23:01:51.581Z,100108.47
2023-05-15T23:04:18.798Z,100100.59
2023-05-15T23:06:46.254Z,100103.88
2023-05-15T23:09:13.257Z,100104.25
2023-05-15T23:11:40.301Z,100103.66
2023-05-15T23:14:08.558Z,100100.53
2023-05-15T23:16:36.338Z,100100.53
2023-05-15T23:19:03.489Z,100099.66
2023-05-15T23:21:31.271Z,100097.19
2023-05-15T23:23:58.331Z,100100.06
2023-05-15T23:26:26.056Z,100096.75
2023-05-15T23:28:53.048Z,100105.81
2023-05-15T23:31:20.620Z,100108.91
2023-05-15T23:33:47.729Z,100107.47
2023-05-15T23:36:14.795Z,100111.75
2023-05-15T23:38:41.779Z,100125.59
2023-05-15T23:41:08.926Z,100126.53
2023-05-15T23:43:35.943Z,100126.44
2023-05-15T23:46:03.549Z,100127.78
2023-05-15T23:48:31.921Z,100131.47
2023-05-15T23:50:58.927Z,100122.78
2023-05-15T23:53:25.977Z,100126.09
2023-05-15T23:55:53.052Z,100127.78
2023-05-15T23:58:20.075Z,100129.44
